sensor_id;sensor_type;location;lat;lon;timestamp;P1;durP1;ratioP1;P2;durP2;ratioP2
39566;SDS011;25241;41.978;14.664;2022-08-14T00:00:48;1.00;;;0.52;;
39566;SDS011;25241;41.978;14.664;2022-08-14T00:03:17;3.35;;;1.02;;
39566;SDS011;25241;41.978;14.664;2022-08-14T00:05:47;1.08;;;0.73;;
39566;SDS011;25241;41.978;14.664;2022-08-14T00:08:15;1.80;;;0.95;;
39566;SDS011;25241;41.978;14.664;2022-08-14T00:10:41;2.45;;;1.20;;
39566;SDS011;25241;41.978;14.664;2022-08-14T00:13:09;1.17;;;0.70;;
39566;SDS011;25241;41.978;14.664;2022-08-14T00:15:38;1.97;;;1.07;;
39566;SDS011;25241;41.978;14.664;2022-08-14T00:18:06;2.05;;;1.20;;
39566;SDS011;25241;41.978;14.664;2022-08-14T00:20:33;1.75;;;0.90;;
39566;SDS011;25241;41.978;14.664;2022-08-14T00:23:00;2.35;;;0.80;;
39566;SDS011;25241;41.978;14.664;2022-08-14T00:25:26;4.18;;;1.05;;
39566;SDS011;25241;41.978;14.664;2022-08-14T00:27:52;1.02;;;0.70;;
39566;SDS011;25241;41.978;14.664;2022-08-14T00:30:18;1.73;;;0.95;;
39566;SDS011;25241;41.978;14.664;2022-08-14T00:32:44;1.58;;;0.90;;
39566;SDS011;25241;41.978;14.664;2022-08-14T00:35:10;1.45;;;1.13;;
39566;SDS011;25241;41.978;14.664;2022-08-14T00:37:42;1.15;;;0.75;;
39566;SDS011;25241;41.978;14.664;2022-08-14T00:40:09;2.38;;;0.90;;
39566;SDS011;25241;41.978;14.664;2022-08-14T00:42:37;2.88;;;0.90;;
39566;SDS011;25241;41.978;14.664;2022-08-14T00:45:04;0.77;;;0.75;;
39566;SDS011;25241;41.978;14.664;2022-08-14T00:47:31;3.17;;;1.00;;
39566;SDS011;25241;41.978;14.664;2022-08-14T00:49:57;1.08;;;0.63;;
39566;SDS011;25241;41.978;14.664;2022-08-14T00:52:22;1.23;;;0.80;;
39566;SDS011;25241;41.978;14.664;2022-08-14T00:54:52;1.05;;;0.85;;
39566;SDS011;25241;41.978;14.664;2022-08-14T00:57:30;1.40;;;0.90;;
39566;SDS011;25241;41.978;14.664;2022-08-14T00:59:57;1.93;;;0.90;;
39566;SDS011;25241;41.978;14.664;2022-08-14T01:02:25;2.30;;;0.75;;
39566;SDS011;25241;41.978;14.664;2022-08-14T01:04:53;5.53;;;0.95;;
39566;SDS011;25241;41.978;14.664;2022-08-14T01:07:31;4.10;;;0.90;;
39566;SDS011;25241;41.978;14.664;2022-08-14T01:09:58;2.72;;;1.00;;
39566;SDS011;25241;41.978;14.664;2022-08-14T01:12:26;2.30;;;0.98;;
39566;SDS011;25241;41.978;14.664;2022-08-14T01:14:54;1.48;;;1.00;;
39566;SDS011;25241;41.978;14.664;2022-08-14T01:17:24;1.00;;;0.73;;
39566;SDS011;25241;41.978;14.664;2022-08-14T01:20:15;0.82;;;0.68;;
39566;SDS011;25241;41.978;14.664;2022-08-14T01:22:59;0.70;;;0.60;;
39566;SDS011;25241;41.978;14.664;2022-08-14T01:25:26;4.07;;;1.08;;
39566;SDS011;25241;41.978;14.664;2022-08-14T01:27:54;1.92;;;0.90;;
39566;SDS011;25241;41.978;14.664;2022-08-14T01:30:22;1.00;;;0.70;;
39566;SDS011;25241;41.978;14.664;2022-08-14T01:32:50;0.88;;;0.80;;
39566;SDS011;25241;41.978;14.664;2022-08-14T01:35:16;1.20;;;0.88;;
39566;SDS011;25241;41.978;14.664;2022-08-14T01:37:47;6.10;;;0.82;;
39566;SDS011;25241;41.978;14.664;2022-08-14T01:40:13;0.63;;;0.50;;
39566;SDS011;25241;41.978;14.664;2022-08-14T01:42:45;2.10;;;0.98;;
39566;SDS011;25241;41.978;14.664;2022-08-14T01:45:10;7.53;;;1.45;;
39566;SDS011;25241;41.978;14.664;2022-08-14T01:47:37;3.55;;;1.10;;
39566;SDS011;25241;41.978;14.664;2022-08-14T01:50:06;1.33;;;0.85;;
39566;SDS011;25241;41.978;14.664;2022-08-14T01:52:36;1.60;;;0.98;;
39566;SDS011;25241;41.978;14.664;2022-08-14T01:57:30;3.30;;;0.70;;
39566;SDS011;25241;41.978;14.664;2022-08-14T02:00:00;6.20;;;0.85;;
39566;SDS011;25241;41.978;14.664;2022-08-14T02:02:25;1.88;;;1.23;;
39566;SDS011;25241;41.978;14.664;2022-08-14T02:04:54;0.77;;;0.77;;
39566;SDS011;25241;41.978;14.664;2022-08-14T02:07:22;2.42;;;0.90;;
39566;SDS011;25241;41.978;14.664;2022-08-14T02:09:50;1.27;;;0.82;;
39566;SDS011;25241;41.978;14.664;2022-08-14T02:12:18;1.23;;;0.70;;
39566;SDS011;25241;41.978;14.664;2022-08-14T02:14:43;1.35;;;0.93;;
39566;SDS011;25241;41.978;14.664;2022-08-14T02:17:09;2.00;;;0.90;;
39566;SDS011;25241;41.978;14.664;2022-08-14T02:19:37;2.05;;;0.77;;
39566;SDS011;25241;41.978;14.664;2022-08-14T02:22:02;0.85;;;0.65;;
39566;SDS011;25241;41.978;14.664;2022-08-14T02:24:30;1.30;;;0.55;;
39566;SDS011;25241;41.978;14.664;2022-08-14T02:26:57;1.33;;;0.70;;
39566;SDS011;25241;41.978;14.664;2022-08-14T02:29:25;3.65;;;0.80;;
39566;SDS011;25241;41.978;14.664;2022-08-14T02:31:55;1.90;;;1.15;;
39566;SDS011;25241;41.978;14.664;2022-08-14T02:34:23;0.43;;;0.40;;
39566;SDS011;25241;41.978;14.664;2022-08-14T02:36:59;1.52;;;0.70;;
39566;SDS011;25241;41.978;14.664;2022-08-14T02:39:27;3.10;;;0.60;;
39566;SDS011;25241;41.978;14.664;2022-08-14T02:41:53;0.73;;;0.55;;
39566;SDS011;25241;41.978;14.664;2022-08-14T02:44:19;2.40;;;0.70;;
39566;SDS011;25241;41.978;14.664;2022-08-14T02:46:49;1.35;;;0.60;;
39566;SDS011;25241;41.978;14.664;2022-08-14T02:49:16;1.15;;;0.90;;
39566;SDS011;25241;41.978;14.664;2022-08-14T02:51:45;1.83;;;0.73;;
39566;SDS011;25241;41.978;14.664;2022-08-14T02:54:12;0.82;;;0.63;;
39566;SDS011;25241;41.978;14.664;2022-08-14T02:56:38;0.90;;;0.63;;
39566;SDS011;25241;41.978;14.664;2022-08-14T02:59:04;0.82;;;0.63;;
39566;SDS011;25241;41.978;14.664;2022-08-14T03:01:31;0.68;;;0.57;;
39566;SDS011;25241;41.978;14.664;2022-08-14T03:04:01;2.35;;;0.90;;
39566;SDS011;25241;41.978;14.664;2022-08-14T03:06:30;1.33;;;0.60;;
39566;SDS011;25241;41.978;14.664;2022-08-14T03:08:56;2.35;;;0.75;;
39566;SDS011;25241;41.978;14.664;2022-08-14T03:11:23;1.45;;;0.85;;
39566;SDS011;25241;41.978;14.664;2022-08-14T03:13:51;3.70;;;0.75;;
39566;SDS011;25241;41.978;14.664;2022-08-14T03:16:23;0.93;;;0.70;;
39566;SDS011;25241;41.978;14.664;2022-08-14T03:18:52;3.17;;;1.00;;
39566;SDS011;25241;41.978;14.664;2022-08-14T03:21:21;4.40;;;0.93;;
39566;SDS011;25241;41.978;14.664;2022-08-14T03:23:49;1.35;;;0.68;;
39566;SDS011;25241;41.978;14.664;2022-08-14T03:26:18;4.28;;;0.50;;
39566;SDS011;25241;41.978;14.664;2022-08-14T03:28:48;1.45;;;0.60;;
39566;SDS011;25241;41.978;14.664;2022-08-14T03:31:15;2.03;;;0.55;;
39566;SDS011;25241;41.978;14.664;2022-08-14T03:33:42;0.98;;;0.60;;
39566;SDS011;25241;41.978;14.664;2022-08-14T03:36:10;0.93;;;0.75;;
39566;SDS011;25241;41.978;14.664;2022-08-14T03:38:38;0.50;;;0.50;;
39566;SDS011;25241;41.978;14.664;2022-08-14T03:41:10;1.05;;;0.60;;
39566;SDS011;25241;41.978;14.664;2022-08-14T03:43:46;0.85;;;0.55;;
39566;SDS011;25241;41.978;14.664;2022-08-14T03:46:14;1.02;;;0.85;;
39566;SDS011;25241;41.978;14.664;2022-08-14T03:48:41;2.05;;;0.77;;
39566;SDS011;25241;41.978;14.664;2022-08-14T03:51:10;1.20;;;0.47;;
39566;SDS011;25241;41.978;14.664;2022-08-14T03:53:39;0.85;;;0.65;;
39566;SDS011;25241;41.978;14.664;2022-08-14T03:56:08;1.00;;;0.80;;
39566;SDS011;25241;41.978;14.664;2022-08-14T03:58:44;6.20;;;0.88;;
39566;SDS011;25241;41.978;14.664;2022-08-14T04:01:15;1.70;;;0.60;;
39566;SDS011;25241;41.978;14.664;2022-08-14T04:03:48;0.82;;;0.50;;
39566;SDS011;25241;41.978;14.664;2022-08-14T04:06:17;1.55;;;0.60;;
39566;SDS011;25241;41.978;14.664;2022-08-14T04:08:46;1.23;;;0.90;;
39566;SDS011;25241;41.978;14.664;2022-08-14T04:11:14;1.30;;;0.70;;
39566;SDS011;25241;41.978;14.664;2022-08-14T04:13:40;1.10;;;0.60;;
39566;SDS011;25241;41.978;14.664;2022-08-14T04:16:09;0.73;;;0.60;;
39566;SDS011;25241;41.978;14.664;2022-08-14T04:18:47;4.15;;;0.43;;
39566;SDS011;25241;41.978;14.664;2022-08-14T04:21:17;1.08;;;0.60;;
39566;SDS011;25241;41.978;14.664;2022-08-14T04:23:43;1.88;;;0.90;;
39566;SDS011;25241;41.978;14.664;2022-08-14T04:26:11;1.52;;;0.70;;
39566;SDS011;25241;41.978;14.664;2022-08-14T04:28:38;1.42;;;0.80;;
39566;SDS011;25241;41.978;14.664;2022-08-14T04:31:07;1.60;;;0.80;;
39566;SDS011;25241;41.978;14.664;2022-08-14T04:33:33;1.67;;;0.65;;
39566;SDS011;25241;41.978;14.664;2022-08-14T04:36:00;1.88;;;0.82;;
39566;SDS011;25241;41.978;14.664;2022-08-14T04:38:26;3.63;;;0.68;;
39566;SDS011;25241;41.978;14.664;2022-08-14T04:41:09;1.88;;;0.95;;
39566;SDS011;25241;41.978;14.664;2022-08-14T04:43:56;1.33;;;0.70;;
39566;SDS011;25241;41.978;14.664;2022-08-14T04:46:24;1.40;;;0.82;;
39566;SDS011;25241;41.978;14.664;2022-08-14T04:48:54;0.80;;;0.60;;
39566;SDS011;25241;41.978;14.664;2022-08-14T04:51:23;3.30;;;0.85;;
39566;SDS011;25241;41.978;14.664;2022-08-14T04:53:52;1.90;;;0.80;;
39566;SDS011;25241;41.978;14.664;2022-08-14T04:56:20;1.05;;;0.82;;
39566;SDS011;25241;41.978;14.664;2022-08-14T04:58:52;1.58;;;0.70;;
39566;SDS011;25241;41.978;14.664;2022-08-14T05:01:25;1.70;;;0.80;;
39566;SDS011;25241;41.978;14.664;2022-08-14T05:03:51;1.10;;;0.82;;
39566;SDS011;25241;41.978;14.664;2022-08-14T05:06:19;1.75;;;0.75;;
39566;SDS011;25241;41.978;14.664;2022-08-14T05:08:46;0.77;;;0.68;;
39566;SDS011;25241;41.978;14.664;2022-08-14T05:11:11;0.63;;;0.63;;
39566;SDS011;25241;41.978;14.664;2022-08-14T05:13:37;6.95;;;4.68;;
39566;SDS011;25241;41.978;14.664;2022-08-14T05:16:03;2.05;;;0.88;;
39566;SDS011;25241;41.978;14.664;2022-08-14T05:18:31;0.68;;;0.50;;
39566;SDS011;25241;41.978;14.664;2022-08-14T05:21:00;1.33;;;0.60;;
39566;SDS011;25241;41.978;14.664;2022-08-14T05:23:28;2.83;;;0.63;;
39566;SDS011;25241;41.978;14.664;2022-08-14T05:25:56;0.77;;;0.38;;
39566;SDS011;25241;41.978;14.664;2022-08-14T05:28:28;1.25;;;0.65;;
39566;SDS011;25241;41.978;14.664;2022-08-14T05:30:56;1.25;;;0.68;;
39566;SDS011;25241;41.978;14.664;2022-08-14T05:33:25;0.95;;;0.45;;
39566;SDS011;25241;41.978;14.664;2022-08-14T05:35:53;0.70;;;0.50;;
39566;SDS011;25241;41.978;14.664;2022-08-14T05:38:25;2.72;;;0.52;;
39566;SDS011;25241;41.978;14.664;2022-08-14T05:43:27;1.45;;;0.77;;
39566;SDS011;25241;41.978;14.664;2022-08-14T05:45:53;0.60;;;0.50;;
39566;SDS011;25241;41.978;14.664;2022-08-14T05:48:21;1.35;;;0.90;;
39566;SDS011;25241;41.978;14.664;2022-08-14T05:50:50;1.75;;;0.52;;
39566;SDS011;25241;41.978;14.664;2022-08-14T05:53:16;0.57;;;0.47;;
39566;SDS011;25241;41.978;14.664;2022-08-14T05:55:44;2.17;;;0.50;;
39566;SDS011;25241;41.978;14.664;2022-08-14T05:58:10;2.78;;;0.93;;
39566;SDS011;25241;41.978;14.664;2022-08-14T06:00:40;0.50;;;0.50;;
39566;SDS011;25241;41.978;14.664;2022-08-14T06:03:10;0.98;;;0.90;;
39566;SDS011;25241;41.978;14.664;2022-08-14T06:05:41;0.43;;;0.40;;
39566;SDS011;25241;41.978;14.664;2022-08-14T06:10:53;1.00;;;0.50;;
39566;SDS011;25241;41.978;14.664;2022-08-14T06:13:22;2.17;;;0.60;;
39566;SDS011;25241;41.978;14.664;2022-08-14T06:15:50;1.38;;;0.65;;
39566;SDS011;25241;41.978;14.664;2022-08-14T06:18:18;0.90;;;0.60;;
39566;SDS011;25241;41.978;14.664;2022-08-14T06:20:44;1.15;;;0.70;;
39566;SDS011;25241;41.978;14.664;2022-08-14T06:23:12;0.70;;;0.40;;
39566;SDS011;25241;41.978;14.664;2022-08-14T06:32:55;0.68;;;0.50;;
39566;SDS011;25241;41.978;14.664;2022-08-14T06:35:23;2.72;;;0.50;;
39566;SDS011;25241;41.978;14.664;2022-08-14T06:37:51;0.55;;;0.47;;
39566;SDS011;25241;41.978;14.664;2022-08-14T06:40:25;0.77;;;0.73;;
39566;SDS011;25241;41.978;14.664;2022-08-14T06:42:54;3.33;;;0.63;;
39566;SDS011;25241;41.978;14.664;2022-08-14T06:45:20;1.45;;;0.60;;
39566;SDS011;25241;41.978;14.664;2022-08-14T06:47:46;0.55;;;0.40;;
39566;SDS011;25241;41.978;14.664;2022-08-14T06:50:13;0.60;;;0.60;;
39566;SDS011;25241;41.978;14.664;2022-08-14T06:52:43;1.85;;;1.10;;
39566;SDS011;25241;41.978;14.664;2022-08-14T06:55:10;1.00;;;0.60;;
39566;SDS011;25241;41.978;14.664;2022-08-14T06:57:45;3.33;;;0.88;;
39566;SDS011;25241;41.978;14.664;2022-08-14T07:00:15;0.98;;;0.65;;
39566;SDS011;25241;41.978;14.664;2022-08-14T07:02:45;0.85;;;0.40;;
39566;SDS011;25241;41.978;14.664;2022-08-14T07:05:29;1.00;;;0.68;;
39566;SDS011;25241;41.978;14.664;2022-08-14T07:10:46;0.67;;;0.60;;
39566;SDS011;25241;41.978;14.664;2022-08-14T07:13:16;2.78;;;0.80;;
39566;SDS011;25241;41.978;14.664;2022-08-14T07:15:45;1.92;;;0.93;;
39566;SDS011;25241;41.978;14.664;2022-08-14T07:18:17;1.45;;;0.63;;
39566;SDS011;25241;41.978;14.664;2022-08-14T07:20:50;2.15;;;0.85;;
39566;SDS011;25241;41.978;14.664;2022-08-14T07:23:18;1.83;;;1.02;;
39566;SDS011;25241;41.978;14.664;2022-08-14T07:25:45;1.98;;;0.82;;
39566;SDS011;25241;41.978;14.664;2022-08-14T07:28:14;1.63;;;0.82;;
39566;SDS011;25241;41.978;14.664;2022-08-14T07:30:41;1.33;;;0.95;;
39566;SDS011;25241;41.978;14.664;2022-08-14T07:33:07;4.47;;;0.98;;
39566;SDS011;25241;41.978;14.664;2022-08-14T07:35:34;3.15;;;1.45;;
39566;SDS011;25241;41.978;14.664;2022-08-14T07:38:00;1.35;;;0.90;;
39566;SDS011;25241;41.978;14.664;2022-08-14T07:40:26;3.00;;;0.73;;
39566;SDS011;25241;41.978;14.664;2022-08-14T07:42:52;0.95;;;0.60;;
39566;SDS011;25241;41.978;14.664;2022-08-14T07:45:17;2.25;;;1.10;;
39566;SDS011;25241;41.978;14.664;2022-08-14T07:47:43;1.00;;;0.70;;
39566;SDS011;25241;41.978;14.664;2022-08-14T07:57:33;2.85;;;1.20;;
39566;SDS011;25241;41.978;14.664;2022-08-14T08:00:02;1.38;;;0.90;;
39566;SDS011;25241;41.978;14.664;2022-08-14T08:02:29;1.60;;;1.05;;
39566;SDS011;25241;41.978;14.664;2022-08-14T08:04:55;1.65;;;0.93;;
39566;SDS011;25241;41.978;14.664;2022-08-14T08:07:24;3.42;;;0.85;;
39566;SDS011;25241;41.978;14.664;2022-08-14T08:09:53;1.65;;;0.60;;
39566;SDS011;25241;41.978;14.664;2022-08-14T08:12:21;1.08;;;0.75;;
39566;SDS011;25241;41.978;14.664;2022-08-14T08:14:49;5.15;;;0.60;;
39566;SDS011;25241;41.978;14.664;2022-08-14T08:17:16;1.23;;;0.70;;
39566;SDS011;25241;41.978;14.664;2022-08-14T08:19:47;0.80;;;0.80;;
39566;SDS011;25241;41.978;14.664;2022-08-14T08:22:13;0.77;;;0.75;;
39566;SDS011;25241;41.978;14.664;2022-08-14T08:24:39;2.10;;;1.02;;
39566;SDS011;25241;41.978;14.664;2022-08-14T08:27:17;1.02;;;0.80;;
39566;SDS011;25241;41.978;14.664;2022-08-14T08:29:44;2.33;;;1.60;;
39566;SDS011;25241;41.978;14.664;2022-08-14T08:32:10;1.25;;;0.77;;
39566;SDS011;25241;41.978;14.664;2022-08-14T08:34:45;1.20;;;0.75;;
39566;SDS011;25241;41.978;14.664;2022-08-14T08:37:13;4.53;;;0.93;;
39566;SDS011;25241;41.978;14.664;2022-08-14T08:39:42;0.95;;;0.60;;
39566;SDS011;25241;41.978;14.664;2022-08-14T08:42:11;0.88;;;0.77;;
39566;SDS011;25241;41.978;14.664;2022-08-14T11:36:08;3.38;;;1.23;;
39566;SDS011;25241;41.978;14.664;2022-08-14T11:38:35;6.57;;;1.33;;
39566;SDS011;25241;41.978;14.664;2022-08-14T11:41:05;2.00;;;1.30;;
39566;SDS011;25241;41.978;14.664;2022-08-14T11:43:31;2.28;;;1.00;;
39566;SDS011;25241;41.978;14.664;2022-08-14T11:46:05;2.20;;;1.10;;
39566;SDS011;25241;41.978;14.664;2022-08-14T11:48:30;1.05;;;0.90;;
39566;SDS011;25241;41.978;14.664;2022-08-14T11:50:56;2.13;;;1.15;;
39566;SDS011;25241;41.978;14.664;2022-08-14T11:53:23;5.00;;;1.15;;
39566;SDS011;25241;41.978;14.664;2022-08-14T11:55:58;2.10;;;0.82;;
39566;SDS011;25241;41.978;14.664;2022-08-14T11:58:33;4.57;;;1.35;;
39566;SDS011;25241;41.978;14.664;2022-08-14T12:01:01;1.55;;;1.10;;
39566;SDS011;25241;41.978;14.664;2022-08-14T12:06:14;2.92;;;1.30;;
39566;SDS011;25241;41.978;14.664;2022-08-14T12:08:41;2.28;;;1.40;;
39566;SDS011;25241;41.978;14.664;2022-08-14T12:11:08;2.05;;;1.08;;
39566;SDS011;25241;41.978;14.664;2022-08-14T12:13:37;1.92;;;1.10;;
39566;SDS011;25241;41.978;14.664;2022-08-14T12:16:06;3.03;;;1.48;;
39566;SDS011;25241;41.978;14.664;2022-08-14T12:18:34;4.68;;;1.25;;
39566;SDS011;25241;41.978;14.664;2022-08-14T12:21:20;4.90;;;1.42;;
39566;SDS011;25241;41.978;14.664;2022-08-14T12:24:04;2.58;;;1.42;;
39566;SDS011;25241;41.978;14.664;2022-08-14T12:26:31;2.05;;;1.40;;
39566;SDS011;25241;41.978;14.664;2022-08-14T12:29:05;3.00;;;1.50;;
39566;SDS011;25241;41.978;14.664;2022-08-14T12:31:32;1.80;;;1.48;;
39566;SDS011;25241;41.978;14.664;2022-08-14T12:33:59;1.83;;;1.23;;
39566;SDS011;25241;41.978;14.664;2022-08-14T12:36:26;4.47;;;1.33;;
39566;SDS011;25241;41.978;14.664;2022-08-14T12:38:55;2.63;;;1.30;;
39566;SDS011;25241;41.978;14.664;2022-08-14T12:41:24;2.70;;;1.35;;
39566;SDS011;25241;41.978;14.664;2022-08-14T12:43:58;3.25;;;2.10;;
39566;SDS011;25241;41.978;14.664;2022-08-14T12:48:58;3.58;;;1.15;;
39566;SDS011;25241;41.978;14.664;2022-08-14T12:51:26;4.15;;;1.30;;
39566;SDS011;25241;41.978;14.664;2022-08-14T12:53:53;4.57;;;1.35;;
39566;SDS011;25241;41.978;14.664;2022-08-14T15:25:30;1.95;;;0.90;;
39566;SDS011;25241;41.978;14.664;2022-08-14T15:27:58;2.70;;;1.23;;
39566;SDS011;25241;41.978;14.664;2022-08-14T15:30:25;1.65;;;1.00;;
39566;SDS011;25241;41.978;14.664;2022-08-14T15:32:54;2.47;;;1.33;;
39566;SDS011;25241;41.978;14.664;2022-08-14T15:35:20;1.77;;;0.98;;
39566;SDS011;25241;41.978;14.664;2022-08-14T15:37:48;1.80;;;1.20;;
39566;SDS011;25241;41.978;14.664;2022-08-14T15:40:14;2.85;;;1.20;;
39566;SDS011;25241;41.978;14.664;2022-08-14T15:42:42;4.05;;;1.45;;
39566;SDS011;25241;41.978;14.664;2022-08-14T15:45:08;4.53;;;1.02;;
39566;SDS011;25241;41.978;14.664;2022-08-14T15:47:37;2.92;;;1.42;;
39566;SDS011;25241;41.978;14.664;2022-08-14T15:50:04;1.77;;;1.40;;
39566;SDS011;25241;41.978;14.664;2022-08-14T15:52:35;1.85;;;1.08;;
39566;SDS011;25241;41.978;14.664;2022-08-14T15:55:03;2.15;;;1.45;;
39566;SDS011;25241;41.978;14.664;2022-08-14T15:57:34;3.22;;;1.88;;
39566;SDS011;25241;41.978;14.664;2022-08-14T16:00:00;3.97;;;1.10;;
39566;SDS011;25241;41.978;14.664;2022-08-14T16:17:39;4.72;;;1.33;;
39566;SDS011;25241;41.978;14.664;2022-08-14T16:20:08;6.05;;;1.30;;
39566;SDS011;25241;41.978;14.664;2022-08-14T16:22:36;7.60;;;1.50;;
39566;SDS011;25241;41.978;14.664;2022-08-14T16:25:04;3.63;;;2.05;;
39566;SDS011;25241;41.978;14.664;2022-08-14T16:27:32;1.13;;;0.83;;
39566;SDS011;25241;41.978;14.664;2022-08-14T16:29:58;2.28;;;1.55;;
39566;SDS011;25241;41.978;14.664;2022-08-14T16:32:27;3.70;;;1.48;;
39566;SDS011;25241;41.978;14.664;2022-08-14T16:34:53;3.40;;;1.15;;
39566;SDS011;25241;41.978;14.664;2022-08-14T16:37:19;1.20;;;0.90;;
39566;SDS011;25241;41.978;14.664;2022-08-14T16:39:45;2.75;;;1.45;;
39566;SDS011;25241;41.978;14.664;2022-08-14T16:42:19;1.80;;;1.13;;
39566;SDS011;25241;41.978;14.664;2022-08-14T16:44:47;4.88;;;1.40;;
39566;SDS011;25241;41.978;14.664;2022-08-14T16:47:14;3.53;;;1.75;;
39566;SDS011;25241;41.978;14.664;2022-08-14T16:49:43;1.67;;;1.17;;
39566;SDS011;25241;41.978;14.664;2022-08-14T16:52:10;3.00;;;1.58;;
39566;SDS011;25241;41.978;14.664;2022-08-14T16:54:40;3.85;;;1.30;;
39566;SDS011;25241;41.978;14.664;2022-08-14T16:57:14;4.75;;;1.25;;
39566;SDS011;25241;41.978;14.664;2022-08-14T16:59:49;4.72;;;1.50;;
39566;SDS011;25241;41.978;14.664;2022-08-14T17:02:18;1.20;;;1.10;;
39566;SDS011;25241;41.978;14.664;2022-08-14T17:05:19;4.40;;;1.58;;
39566;SDS011;25241;41.978;14.664;2022-08-14T17:10:35;2.78;;;1.30;;
39566;SDS011;25241;41.978;14.664;2022-08-14T17:23:50;3.95;;;1.70;;
39566;SDS011;25241;41.978;14.664;2022-08-14T17:26:40;4.32;;;1.70;;
39566;SDS011;25241;41.978;14.664;2022-08-14T17:29:15;5.35;;;1.33;;
39566;SDS011;25241;41.978;14.664;2022-08-14T17:31:53;3.65;;;1.48;;
39566;SDS011;25241;41.978;14.664;2022-08-14T17:34:24;2.28;;;1.75;;
39566;SDS011;25241;41.978;14.664;2022-08-14T17:36:52;3.08;;;1.30;;
39566;SDS011;25241;41.978;14.664;2022-08-14T17:39:21;2.15;;;1.23;;
39566;SDS011;25241;41.978;14.664;2022-08-14T17:46:55;3.28;;;1.42;;
39566;SDS011;25241;41.978;14.664;2022-08-14T17:49:24;7.50;;;1.58;;
39566;SDS011;25241;41.978;14.664;2022-08-14T17:54:38;5.45;;;1.75;;
39566;SDS011;25241;41.978;14.664;2022-08-14T17:57:12;2.45;;;1.35;;
39566;SDS011;25241;41.978;14.664;2022-08-14T17:59:42;5.05;;;3.42;;
39566;SDS011;25241;41.978;14.664;2022-08-14T18:02:15;2.50;;;1.63;;
39566;SDS011;25241;41.978;14.664;2022-08-14T18:04:48;3.53;;;1.88;;
39566;SDS011;25241;41.978;14.664;2022-08-14T18:07:16;2.63;;;1.58;;
39566;SDS011;25241;41.978;14.664;2022-08-14T18:10:05;5.38;;;1.58;;
39566;SDS011;25241;41.978;14.664;2022-08-14T18:12:33;4.90;;;1.88;;
39566;SDS011;25241;41.978;14.664;2022-08-14T18:15:09;2.45;;;1.52;;
39566;SDS011;25241;41.978;14.664;2022-08-14T18:17:37;5.75;;;1.60;;
39566;SDS011;25241;41.978;14.664;2022-08-14T18:20:05;8.05;;;2.95;;
39566;SDS011;25241;41.978;14.664;2022-08-14T18:22:33;6.10;;;2.58;;
39566;SDS011;25241;41.978;14.664;2022-08-14T18:24:59;3.63;;;2.05;;
39566;SDS011;25241;41.978;14.664;2022-08-14T18:27:36;9.25;;;2.15;;
39566;SDS011;25241;41.978;14.664;2022-08-14T18:30:04;9.13;;;3.57;;
39566;SDS011;25241;41.978;14.664;2022-08-14T18:35:01;5.40;;;2.35;;
39566;SDS011;25241;41.978;14.664;2022-08-14T18:37:34;3.92;;;1.88;;
39566;SDS011;25241;41.978;14.664;2022-08-14T18:42:48;3.08;;;1.40;;
39566;SDS011;25241;41.978;14.664;2022-08-14T18:45:25;8.82;;;2.58;;
39566;SDS011;25241;41.978;14.664;2022-08-14T18:50:46;5.95;;;2.70;;
39566;SDS011;25241;41.978;14.664;2022-08-14T18:53:12;5.40;;;2.22;;
39566;SDS011;25241;41.978;14.664;2022-08-14T18:55:39;3.40;;;1.67;;
39566;SDS011;25241;41.978;14.664;2022-08-14T19:06:00;2.40;;;1.65;;
39566;SDS011;25241;41.978;14.664;2022-08-14T19:08:41;2.97;;;1.55;;
39566;SDS011;25241;41.978;14.664;2022-08-14T19:13:55;3.97;;;1.50;;
39566;SDS011;25241;41.978;14.664;2022-08-14T19:16:24;3.13;;;1.77;;
39566;SDS011;25241;41.978;14.664;2022-08-14T19:19:03;2.75;;;1.25;;
39566;SDS011;25241;41.978;14.664;2022-08-14T19:21:40;2.70;;;1.30;;
39566;SDS011;25241;41.978;14.664;2022-08-14T19:24:15;4.45;;;1.42;;
39566;SDS011;25241;41.978;14.664;2022-08-14T19:26:49;3.55;;;1.60;;
39566;SDS011;25241;41.978;14.664;2022-08-14T19:29:37;4.85;;;1.40;;
39566;SDS011;25241;41.978;14.664;2022-08-14T19:32:03;5.25;;;2.08;;
39566;SDS011;25241;41.978;14.664;2022-08-14T19:34:37;2.33;;;1.60;;
39566;SDS011;25241;41.978;14.664;2022-08-14T19:37:11;3.20;;;1.80;;
39566;SDS011;25241;41.978;14.664;2022-08-14T19:39:54;5.60;;;1.50;;
39566;SDS011;25241;41.978;14.664;2022-08-14T19:42:35;3.13;;;1.40;;
39566;SDS011;25241;41.978;14.664;2022-08-14T19:45:01;5.38;;;2.33;;
39566;SDS011;25241;41.978;14.664;2022-08-14T19:47:36;2.95;;;1.38;;
39566;SDS011;25241;41.978;14.664;2022-08-14T19:50:03;2.58;;;1.50;;
39566;SDS011;25241;41.978;14.664;2022-08-14T19:52:32;5.72;;;1.73;;
39566;SDS011;25241;41.978;14.664;2022-08-14T19:55:00;3.30;;;1.10;;
39566;SDS011;25241;41.978;14.664;2022-08-14T19:57:27;2.65;;;1.27;;
39566;SDS011;25241;41.978;14.664;2022-08-14T19:59:59;1.88;;;1.50;;
39566;SDS011;25241;41.978;14.664;2022-08-14T20:02:35;3.05;;;1.50;;
39566;SDS011;25241;41.978;14.664;2022-08-14T20:05:02;2.40;;;1.35;;
39566;SDS011;25241;41.978;14.664;2022-08-14T20:07:36;3.13;;;1.63;;
39566;SDS011;25241;41.978;14.664;2022-08-14T20:10:04;2.58;;;1.40;;
39566;SDS011;25241;41.978;14.664;2022-08-14T20:12:32;4.28;;;1.77;;
39566;SDS011;25241;41.978;14.664;2022-08-14T20:15:15;4.45;;;1.60;;
39566;SDS011;25241;41.978;14.664;2022-08-14T20:17:44;3.25;;;1.33;;
39566;SDS011;25241;41.978;14.664;2022-08-14T20:20:15;2.30;;;1.45;;
39566;SDS011;25241;41.978;14.664;2022-08-14T20:22:42;3.38;;;1.27;;
39566;SDS011;25241;41.978;14.664;2022-08-14T20:27:42;3.45;;;1.83;;
39566;SDS011;25241;41.978;14.664;2022-08-14T20:32:46;3.45;;;2.15;;
39566;SDS011;25241;41.978;14.664;2022-08-14T20:35:21;3.85;;;1.67;;
39566;SDS011;25241;41.978;14.664;2022-08-14T20:40:36;2.90;;;1.80;;
39566;SDS011;25241;41.978;14.664;2022-08-14T20:43:03;2.25;;;1.30;;
39566;SDS011;25241;41.978;14.664;2022-08-14T20:45:59;3.60;;;1.52;;
39566;SDS011;25241;41.978;14.664;2022-08-14T20:49:03;2.17;;;1.52;;
39566;SDS011;25241;41.978;14.664;2022-08-14T20:51:46;2.10;;;1.50;;
39566;SDS011;25241;41.978;14.664;2022-08-14T20:54:25;8.85;;;1.45;;
39566;SDS011;25241;41.978;14.664;2022-08-14T20:56:52;7.03;;;1.77;;
39566;SDS011;25241;41.978;14.664;2022-08-14T20:59:24;2.72;;;1.27;;
39566;SDS011;25241;41.978;14.664;2022-08-14T21:04:51;2.40;;;1.50;;
39566;SDS011;25241;41.978;14.664;2022-08-14T21:07:23;8.27;;;1.45;;
39566;SDS011;25241;41.978;14.664;2022-08-14T21:09:54;2.72;;;0.95;;
39566;SDS011;25241;41.978;14.664;2022-08-14T21:12:34;7.78;;;1.80;;
39566;SDS011;25241;41.978;14.664;2022-08-14T21:15:00;2.05;;;1.40;;
39566;SDS011;25241;41.978;14.664;2022-08-14T21:17:26;3.53;;;1.65;;
39566;SDS011;25241;41.978;14.664;2022-08-14T21:19:56;3.80;;;1.60;;
39566;SDS011;25241;41.978;14.664;2022-08-14T21:22:24;3.17;;;1.42;;
39566;SDS011;25241;41.978;14.664;2022-08-14T21:24:53;3.22;;;1.48;;
39566;SDS011;25241;41.978;14.664;2022-08-14T21:27:21;2.67;;;1.50;;
39566;SDS011;25241;41.978;14.664;2022-08-14T21:29:47;1.38;;;1.15;;
39566;SDS011;25241;41.978;14.664;2022-08-14T21:32:13;3.13;;;1.33;;
39566;SDS011;25241;41.978;14.664;2022-08-14T21:34:58;2.83;;;1.30;;
39566;SDS011;25241;41.978;14.664;2022-08-14T21:37:28;2.55;;;1.50;;
39566;SDS011;25241;41.978;14.664;2022-08-14T21:39:57;2.45;;;1.00;;
39566;SDS011;25241;41.978;14.664;2022-08-14T21:42:24;5.15;;;1.50;;
39566;SDS011;25241;41.978;14.664;2022-08-14T21:44:51;3.05;;;1.50;;